East Freetown, Massachusetts
Current Conditions -  °F | °C
As of 1:53 AM on Wednesday 28 Jan 2015 (Local Time) from KEWB Reporting Station
Overcast Overcast  
Wind Chill:   Ceiling: 7000
Heat Index: 15°   Visibility: 10mi
Dew Point:   Wind: 10mph
Humidity: 68%   Direction: 310°NW
Pressure: 29.68"   Gusts: NA
Location:  41.77°N, 70.96°W
Report Text: KEWB 280653Z AUTO 31009KT 10SM OVC070 M09/M14 A2968 RMK AO2 SLP053 T10941144 $
Loading
Personal Weather Stations






























Interactive Weather Map New forecast layout! Learn more

10-Day Weather Forecast

Advertisements
Track Severe Weather on mobile